Terminal Aerodrome Forecast
Issued by NWS Melbourne, FL

Current Version | Previous Version | Text Only | Print | Product List | Glossary On
Versions: 1 2 3 4 5 6 7 8 9 10 11 12 13 14 15
000
FTUS42 KMLB 211120
TAFVRB
TAF
KVRB 211120Z 2112/2212 09004KT P6SM FEW035 SCT250
     FM211400 10010KT P6SM SCT025
     FM211700 10011G18KT P6SM FEW030
     FM220000 09008KT P6SM FEW025=

USA.gov is the U.S. government's official web portal to all federal, state and local government web resources and services.